Time;durP1;ratioP1;P1;durP2;ratioP2;P2;SDS_P1;SDS_P2;PMS_P1;PMS_P2;Temp;Humidity;BMP_temperature;BMP_pressure;BME280_temperature;BME280_humidity;BME280_pressure;Samples;Min_cycle;Max_cycle;Signal;HPM_P1;HPM_P2
2022/09/25 00:00:00;;;;;;;9.95;4.25;;;;;;;22.01;58.98;98296.78;2093302;28;20044;-51
2022/09/25 00:01:01;;;;;;;;;;;;;;;21.92;59.15;98302.75;2093652;28;20641;-50
2022/09/25 00:02:01;;;;;;;;;;;;;;;21.84;59.31;98301.19;2092940;28;19920;-49
2022/09/25 00:03:04;;;;;;;7.15;3.65;;;;;;;21.91;59.19;98301.94;2092835;28;19986;-48
2022/09/25 00:04:06;;;;;;;11.15;4.13;;;;;;;21.95;59.01;98291.47;2095864;28;20044;-49
2022/09/25 00:05:07;;;;;;;11.02;4.75;;;;;;;21.98;58.93;98299.09;2092422;28;20048;-53
2022/09/25 00:06:12;;;;;;;13.30;5.63;;;;;;;22.00;58.95;98302.41;2092760;28;20083;-52
2022/09/25 00:07:12;;;;;;;8.23;5.15;;;;;;;22.00;58.95;98300.50;2093339;28;20139;-51
2022/09/25 00:08:15;;;;;;;7.55;4.25;;;;;;;22.01;58.92;98302.19;2094436;28;20600;-51
2022/09/25 00:09:19;;;;;;;8.40;4.28;;;;;;;22.02;58.69;98303.00;2086034;28;20044;-50
2022/09/25 00:10:23;;;;;;;7.55;4.93;;;;;;;22.03;58.70;98299.22;2089115;28;20585;-50
2022/09/25 00:11:26;;;;;;;11.68;4.13;;;;;;;22.02;58.97;98308.41;2094572;28;21145;-52
2022/09/25 00:12:28;;;;;;;6.93;3.92;;;;;;;22.00;58.81;98299.69;2095007;28;20084;-53
2022/09/25 00:13:30;;;;;;;11.02;5.15;;;;;;;22.03;58.74;98300.03;2093271;28;20040;-49
2022/09/25 00:14:32;;;;;;;13.30;4.95;;;;;;;22.03;58.92;98300.03;2095099;28;20796;-49
2022/09/25 00:15:33;;;;;;;11.95;4.40;;;;;;;22.03;58.85;98305.44;2094579;28;20044;-51
2022/09/25 00:16:35;;;;;;;10.68;4.43;;;;;;;22.04;59.10;98307.09;2095252;28;20044;-51
2022/09/25 00:17:36;;;;;;;9.77;5.05;;;;;;;22.04;58.90;98295.50;2094631;28;20112;-50
2022/09/25 00:19:57;;;;;;;7.97;3.83;;;;;;;22.02;59.21;98297.59;2092498;28;20045;-52
2022/09/25 00:20:59;;;;;;;11.43;5.03;;;;;;;22.03;59.14;98294.66;2092296;28;20052;-50
2022/09/25 00:22:00;;;;;;;8.95;4.57;;;;;;;22.01;58.98;98293.25;2094684;28;20175;-52
2022/09/25 00:23:02;;;;;;;12.63;3.75;;;;;;;22.02;58.81;98298.41;2092682;28;20917;-49
2022/09/25 00:24:05;;;;;;;11.55;4.57;;;;;;;22.03;59.05;98296.53;2093224;28;20049;-49
2022/09/25 00:25:10;;;;;;;8.23;4.43;;;;;;;22.03;58.83;98299.22;2088848;28;20056;-49
2022/09/25 00:26:12;;;;;;;9.32;4.45;;;;;;;22.01;59.10;98299.47;2095640;28;20051;-55
2022/09/25 00:27:14;;;;;;;7.03;3.65;;;;;;;22.01;58.88;98304.06;2090191;28;20044;-54
2022/09/25 00:28:15;;;;;;;11.18;4.50;;;;;;;22.01;58.92;98298.66;2095809;28;20502;-54
2022/09/25 00:29:20;;;;;;;13.90;5.20;;;;;;;22.02;58.79;98303.00;2091630;28;20048;-54
2022/09/25 00:30:21;;;;;;;9.38;4.53;;;;;;;22.00;59.05;98294.28;2092662;28;20442;-54
2022/09/25 00:31:24;;;;;;;5.47;3.50;;;;;;;22.00;58.82;98294.28;2092371;28;20048;-51
2022/09/25 00:32:25;;;;;;;8.88;4.50;;;;;;;22.01;59.01;98291.38;2090708;28;20048;-53
2022/09/25 00:33:27;;;;;;;;;;;;;;;21.92;59.29;98291.94;2093005;28;20210;-52
2022/09/25 00:34:28;;;;;;;8.65;4.00;;;;;;;21.94;59.11;98289.84;2094029;28;20011;-53
2022/09/25 00:35:29;;;;;;;;;;;;;;;21.88;59.17;98290.78;2095251;28;20050;-50
2022/09/25 00:36:30;;;;;;;;;;;;;;;21.82;59.45;98290.66;2091675;28;19920;-51
2022/09/25 00:37:33;;;;;;;7.55;3.90;;;;;;;21.88;59.05;98288.91;2093531;28;19923;-51
2022/09/25 00:38:35;;;;;;;6.03;4.20;;;;;;;21.93;59.06;98286.31;2091912;28;20065;-51
2022/09/25 00:39:37;;;;;;;6.63;3.42;;;;;;;21.96;58.87;98287.72;2093684;28;20084;-48
2022/09/25 00:40:38;;;;;;;11.13;4.50;;;;;;;21.97;58.49;98282.09;2092636;28;20041;-49
2022/09/25 00:41:40;;;;;;;13.25;4.40;;;;;;;22.00;58.60;98295.13;2091447;28;20055;-53
2022/09/25 00:42:41;;;;;;;7.68;4.20;;;;;;;22.01;58.52;98287.88;2094363;28;20060;-54
2022/09/25 00:43:45;;;;;;;8.57;4.50;;;;;;;22.00;58.67;98276.22;2095582;28;20506;-55
2022/09/25 00:44:55;;;;;;;7.63;4.60;;;;;;;22.00;58.49;98286.19;2097184;28;20113;-50
2022/09/25 00:45:57;;;;;;;6.10;3.87;;;;;;;22.01;58.57;98277.88;2088668;28;20139;-54
2022/09/25 00:46:58;;;;;;;9.70;4.28;;;;;;;21.98;58.56;98267.53;2087647;28;20350;-52
2022/09/25 00:48:02;;;;;;;7.28;3.95;;;;;;;21.99;58.74;98269.19;2096101;28;21087;-49
2022/09/25 00:49:09;;;;;;;6.10;3.33;;;;;;;21.99;58.63;98262.97;2094928;28;20093;-55
2022/09/25 00:50:23;;;;;;;9.77;3.88;;;;;;;22.00;58.70;98268.09;2089818;28;20182;-48
2022/09/25 00:51:28;;;;;;;7.07;3.88;;;;;;;21.99;58.45;98258.38;2094069;28;20049;-54
2022/09/25 00:52:30;;;;;;;9.43;4.18;;;;;;;22.00;58.57;98262.72;2095814;28;20052;-50
2022/09/25 00:53:37;;;;;;;9.63;3.90;;;;;;;22.00;58.53;98262.72;2091887;28;20044;-54
2022/09/25 00:54:43;;;;;;;9.77;4.28;;;;;;;21.99;58.51;98263.78;2086787;28;20692;-51
2022/09/25 00:55:46;;;;;;;5.55;3.13;;;;;;;22.00;58.61;98259.19;2080821;28;20067;-53
2022/09/25 00:56:49;;;;;;;7.90;3.97;;;;;;;22.01;58.41;98263.56;2086932;28;20644;-50
2022/09/25 00:57:56;;;;;;;7.88;3.97;;;;;;;22.02;58.55;98265.19;2085928;28;20052;-54
2022/09/25 00:58:57;;;;;;;8.73;3.65;;;;;;;22.00;58.37;98257.31;2087271;28;20052;-54
2022/09/25 01:00:06;;;;;;;6.03;3.10;;;;;;;22.02;58.47;98252.50;2090487;28;20058;-48
2022/09/25 01:01:09;;;;;;;7.15;3.85;;;;;;;22.00;58.45;98246.50;2087459;28;20065;-49
2022/09/25 01:02:15;;;;;;;11.27;3.78;;;;;;;22.02;58.21;98244.41;2091187;28;20087;-53
2022/09/25 01:03:17;;;;;;;6.95;3.67;;;;;;;22.00;58.54;98251.91;2096414;28;20113;-51
2022/09/25 01:04:20;;;;;;;9.18;3.83;;;;;;;21.99;58.40;98242.16;2092766;28;20772;-53
2022/09/25 01:05:26;;;;;;;6.10;3.70;;;;;;;22.00;58.25;98251.91;2094158;28;20056;-50
2022/09/25 01:06:29;;;;;;;7.75;3.97;;;;;;;22.00;58.56;98249.22;2091992;28;20661;-53
2022/09/25 01:07:32;;;;;;;9.00;3.20;;;;;;;22.00;58.50;98243.81;2090937;28;20097;-51
2022/09/25 01:08:35;;;;;;;6.57;3.20;;;;;;;22.01;58.22;98247.34;2088963;28;20040;-53
2022/09/25 01:09:36;;;;;;;9.38;3.05;;;;;;;22.01;58.47;98247.34;2088889;28;20060;-53
2022/09/25 01:10:38;;;;;;;7.57;4.00;;;;;;;22.00;58.35;98237.59;2089992;28;20448;-49
2022/09/25 01:11:39;;;;;;;6.43;2.90;;;;;;;22.00;58.32;98241.09;2090281;28;20044;-54
2022/09/25 01:12:43;;;;;;;8.00;3.53;;;;;;;22.00;58.26;98243.81;2084206;28;20087;-54
2022/09/25 01:13:45;;;;;;;6.38;2.75;;;;;;;22.01;58.39;98237.38;2088293;28;20059;-52
2022/09/25 01:14:46;;;;;;;9.52;3.33;;;;;;;22.01;58.31;98240.06;2091491;28;20793;-54
2022/09/25 01:15:56;;;;;;;4.82;2.58;;;;;;;22.00;58.30;98233.00;2088267;28;20052;-54
2022/09/25 01:17:05;;;;;;;6.05;3.75;;;;;;;22.00;58.41;98245.69;2085838;28;20590;-53
2022/09/25 01:18:19;;;;;;;6.65;3.13;;;;;;;21.99;58.09;98250.28;2086676;28;20044;-54
2022/09/25 01:19:32;;;;;;;6.88;3.55;;;;;;;21.97;58.48;98243.47;2088487;28;20040;-49
2022/09/25 01:20:59;;;;;;;6.68;3.53;;;;;;;21.98;58.19;98242.41;2086307;28;20098;-49
2022/09/25 01:22:09;;;;;;;9.27;3.50;;;;;;;21.95;58.58;98246.38;2061152;28;21024;-53
2022/09/25 01:23:20;;;;;;;5.53;3.03;;;;;;;21.96;58.31;98245.34;2082840;28;20486;-50
2022/09/25 01:24:44;;;;;;;6.65;3.15;;;;;;;21.94;58.33;98247.44;2080493;28;20478;-54
2022/09/25 01:26:04;;;;;;;6.68;2.70;;;;;;;21.94;58.72;98247.44;2084745;28;20089;-54
2022/09/25 01:27:45;;;;;;;8.05;4.65;;;;;;;21.93;58.65;98245.81;2088444;28;20087;-52
2022/09/25 01:28:59;;;;;;;6.22;4.00;;;;;;;21.91;58.82;98237.13;2087806;28;20102;-54
2022/09/25 01:30:05;;;;;;;7.65;3.13;;;;;;;21.93;58.57;98235.03;2084841;28;20055;-49
2022/09/25 01:31:15;;;;;;;9.27;3.92;;;;;;;21.96;58.46;98234.53;2088209;28;20076;-50
2022/09/25 01:32:23;;;;;;;7.57;3.22;;;;;;;21.95;58.52;98235.59;2087219;28;20044;-53
2022/09/25 01:33:30;;;;;;;6.15;3.20;;;;;;;21.96;58.60;98233.72;2087413;28;20456;-52
2022/09/25 01:34:38;;;;;;;4.78;3.28;;;;;;;21.96;58.53;98229.16;2087611;28;20073;-52
2022/09/25 01:35:45;;;;;;;7.88;3.50;;;;;;;21.95;58.86;98232.88;2077838;28;20044;-55
2022/09/25 01:36:51;;;;;;;11.70;3.40;;;;;;;21.96;58.61;98233.72;2087474;28;20044;-55
2022/09/25 01:37:58;;;;;;;7.88;2.97;;;;;;;21.96;58.82;98229.16;2089310;28;20105;-49
2022/09/25 01:39:09;;;;;;;3.53;2.72;;;;;;;21.98;58.63;98220.78;2088623;28;20049;-50
2022/09/25 01:40:15;;;;;;;7.78;3.33;;;;;;;21.95;58.57;98227.47;2090083;28;20079;-48
2022/09/25 01:41:22;;;;;;;9.10;3.45;;;;;;;21.96;58.57;98222.94;2085935;28;20110;-51
2022/09/25 01:42:28;;;;;;;6.75;3.80;;;;;;;21.97;58.59;98230.78;2086530;28;20044;-50
2022/09/25 01:43:37;;;;;;;9.82;3.08;;;;;;;21.98;58.61;98231.59;2086597;28;20056;-52
2022/09/25 01:44:45;;;;;;;7.93;3.83;;;;;;;21.98;58.74;98220.78;2087336;28;20329;-53
2022/09/25 01:45:51;;;;;;;4.72;3.08;;;;;;;21.98;58.46;98226.19;2089344;28;20078;-49
2022/09/25 01:46:54;;;;;;;3.75;2.28;;;;;;;21.98;58.52;98226.19;2088882;28;20063;-52
2022/09/25 01:47:59;;;;;;;4.88;2.53;;;;;;;21.98;58.46;98216.25;2094404;28;20059;-49
2022/09/25 01:49:07;;;;;;;7.68;3.00;;;;;;;21.97;58.54;98217.28;2091612;28;20052;-49
2022/09/25 01:50:16;;;;;;;5.45;2.70;;;;;;;21.96;58.61;98212.94;2089218;28;20056;-54
2022/09/25 01:51:24;;;;;;;4.13;2.13;;;;;;;21.97;58.42;98219.16;2076437;28;20069;-50
2022/09/25 01:52:29;;;;;;;6.32;2.33;;;;;;;21.97;58.65;98224.56;2084131;28;20053;-54
2022/09/25 01:53:38;;;;;;;7.72;3.40;;;;;;;21.97;58.59;98222.69;2088672;28;20086;-55
2022/09/25 01:54:42;;;;;;;4.22;2.53;;;;;;;21.97;58.60;98230.78;2087814;28;20715;-54
2022/09/25 01:55:48;;;;;;;5.38;2.88;;;;;;;21.97;58.53;98236.19;2092339;28;20276;-52
2022/09/25 01:56:53;;;;;;;4.22;2.88;;;;;;;21.97;58.53;98238.06;2087155;28;20058;-53
2022/09/25 01:58:02;;;;;;;4.53;2.50;;;;;;;21.95;58.49;98238.28;2088080;28;20063;-54
2022/09/25 01:59:07;;;;;;;6.70;3.47;;;;;;;21.97;58.57;98235.38;2089928;28;20052;-54
2022/09/25 02:00:14;;;;;;;7.45;2.58;;;;;;;21.96;58.58;98231.84;2088360;28;20800;-55
2022/09/25 02:01:21;;;;;;;6.22;2.63;;;;;;;21.97;58.51;98229.97;2086844;28;20163;-55
2022/09/25 02:02:26;;;;;;;3.88;2.10;;;;;;;21.98;58.46;98237.84;2086330;28;20051;-51
2022/09/25 02:03:32;;;;;;;5.50;2.78;;;;;;;21.97;58.48;98229.97;2088302;28;20510;-53
2022/09/25 02:04:37;;;;;;;6.60;3.08;;;;;;;21.97;58.58;98224.56;2087075;28;20080;-47
2022/09/25 02:05:43;;;;;;;6.05;2.63;;;;;;;21.97;58.37;98224.56;2087178;28;20530;-53
2022/09/25 02:06:48;;;;;;;7.40;2.85;;;;;;;21.97;58.28;98227.25;2086371;28;20061;-51
2022/09/25 02:07:57;;;;;;;5.57;3.03;;;;;;;21.97;58.58;98228.06;2085240;28;20524;-54
2022/09/25 02:09:05;;;;;;;5.07;2.92;;;;;;;21.96;58.52;98229.16;2065503;28;20059;-54
2022/09/25 02:10:11;;;;;;;4.95;2.17;;;;;;;21.95;58.38;98227.47;2083382;28;20123;-54
2022/09/25 02:11:13;;;;;;;10.73;3.25;;;;;;;21.95;58.41;98235.59;2087143;28;22097;-50
2022/09/25 02:12:18;;;;;;;6.63;3.15;;;;;;;21.97;58.39;98236.19;2087688;28;20052;-51
2022/09/25 02:13:23;;;;;;;6.88;2.70;;;;;;;21.97;58.60;98240.75;2085419;28;20048;-51
2022/09/25 02:14:29;;;;;;;9.82;2.95;;;;;;;21.96;58.76;98247.22;2083642;28;20044;-54
2022/09/25 02:15:37;;;;;;;4.95;2.55;;;;;;;21.96;58.52;98242.66;2087377;28;20045;-54
2022/09/25 02:16:42;;;;;;;7.97;3.55;;;;;;;21.95;58.58;98243.69;2086188;28;20045;-51
2022/09/25 02:20:32;;;;;;;8.70;3.58;;;;;;;21.95;58.47;98223.97;2088233;28;20044;-55
2022/09/25 02:21:43;;;;;;;11.73;2.90;;;;;;;21.94;58.40;98209.66;2091153;28;20242;-51
2022/09/25 02:22:47;;;;;;;13.90;2.80;;;;;;;21.96;58.76;98210.25;2086196;28;20051;-51
2022/09/25 02:23:53;;;;;;;10.65;3.03;;;;;;;21.96;58.54;98207.53;2086693;28;20056;-48
2022/09/25 02:24:59;;;;;;;9.45;3.13;;;;;;;21.96;58.13;98202.16;2086823;28;20790;-53
2022/09/25 02:26:05;;;;;;;9.27;2.97;;;;;;;21.95;58.48;98196.97;2078248;28;20988;-49
2022/09/25 02:27:06;;;;;;;9.57;2.95;;;;;;;21.94;58.38;98200.72;2086272;28;22582;-49
2022/09/25 02:28:08;;;;;;;10.63;2.65;;;;;;;21.94;58.51;98204.25;2085587;28;20135;-49
2022/09/25 02:29:09;;;;;;;15.15;3.42;;;;;;;21.95;58.46;98213.97;2082581;28;20059;-54
2022/09/25 02:30:11;;;;;;;20.27;3.95;;;;;;;21.97;58.25;98211.88;2085947;28;20119;-53
2022/09/25 02:31:16;;;;;;;5.05;2.80;;;;;;;21.96;58.28;98218.34;2087114;28;20047;-53
2022/09/25 02:32:21;;;;;;;8.55;2.35;;;;;;;21.96;58.46;98218.34;2084283;28;20643;-54
2022/09/25 02:33:23;;;;;;;9.35;3.15;;;;;;;21.96;58.18;98218.34;2084971;28;20159;-51
2022/09/25 02:34:25;;;;;;;5.95;2.80;;;;;;;21.95;58.31;98213.97;2086290;28;20077;-55
2022/09/25 02:35:27;;;;;;;5.57;2.70;;;;;;;21.96;58.35;98223.75;2085768;28;20048;-50
2022/09/25 02:36:31;;;;;;;6.78;2.53;;;;;;;21.95;58.35;98215.88;2085034;28;20843;-53
2022/09/25 02:37:31;;;;;;;8.55;2.72;;;;;;;21.92;58.44;98217.16;2085296;28;20709;-50
2022/09/25 02:38:35;;;;;;;29.38;3.95;;;;;;;21.96;58.24;98223.75;2086495;28;20052;-53
2022/09/25 02:39:35;;;;;;;10.65;2.97;;;;;;;21.95;58.37;98227.47;2081930;28;20159;-53
2022/09/25 02:40:44;;;;;;;10.18;2.85;;;;;;;21.95;58.25;98227.47;2087546;28;20048;-50
2022/09/25 02:42:08;;;;;;;7.07;2.47;;;;;;;21.92;58.41;98233.34;2089482;28;20493;-50
2022/09/25 02:43:21;;;;;;;7.85;2.20;;;;;;;21.91;58.40;98229.03;2082628;28;20070;-55
2022/09/25 02:44:31;;;;;;;5.45;2.22;;;;;;;21.92;58.27;98233.34;2085769;28;20182;-54
2022/09/25 02:45:41;;;;;;;9.82;3.08;;;;;;;21.92;58.21;98236.06;2087093;28;20048;-54
2022/09/25 02:46:55;;;;;;;5.65;2.00;;;;;;;21.92;58.30;98229.84;2085640;28;20049;-52
2022/09/25 02:48:09;;;;;;;8.70;3.10;;;;;;;21.91;58.26;98220.94;2074576;28;20060;-48
2022/09/25 02:49:21;;;;;;;7.13;2.60;;;;;;;21.91;58.41;98223.63;2083456;28;20059;-53
2022/09/25 02:50:28;;;;;;;5.78;2.85;;;;;;;21.91;58.40;98222.81;2083064;28;22123;-49
2022/09/25 02:51:36;;;;;;;8.05;2.85;;;;;;;21.92;58.13;98233.34;2089593;27;20593;-54
2022/09/25 02:52:46;;;;;;;4.40;2.08;;;;;;;21.91;58.44;98229.03;2084350;28;20047;-51
2022/09/25 02:53:53;;;;;;;8.43;2.67;;;;;;;21.91;58.32;98230.91;2081649;28;21263;-54
2022/09/25 02:54:58;;;;;;;8.93;2.58;;;;;;;21.89;58.10;98225.72;2086090;28;20122;-54
2022/09/25 02:56:02;;;;;;;8.43;2.53;;;;;;;21.88;58.14;98226.78;2086766;28;20117;-53
2022/09/25 02:57:09;;;;;;;8.68;2.92;;;;;;;21.90;58.14;98224.69;2086610;28;20051;-54
2022/09/25 02:58:15;;;;;;;5.15;2.40;;;;;;;21.89;58.08;98224.91;2083267;28;20612;-54
2022/09/25 02:59:23;;;;;;;9.38;2.35;;;;;;;21.83;58.14;98214.00;2092393;22;20260;-83
2022/09/25 03:00:24;;;;;;;5.43;2.42;;;;;;;21.91;58.26;98218.22;2050598;28;22218;-83
2022/09/25 03:01:31;;;;;;;8.40;2.10;;;;;;;21.90;58.10;98222.00;2067690;28;20084;-83
2022/09/25 03:02:36;;;;;;;7.82;2.13;;;;;;;21.92;58.14;98227.97;2072572;28;20037;-82
2022/09/25 03:03:39;;;;;;;8.63;2.60;;;;;;;21.91;58.37;98231.72;2073171;28;20050;-81
2022/09/25 03:04:41;;;;;;;10.32;2.42;;;;;;;21.90;58.36;98226.53;2070766;28;20072;-81
2022/09/25 03:05:44;;;;;;;5.00;1.85;;;;;;;21.91;58.19;98230.91;2064054;28;20096;-82
2022/09/25 03:06:45;;;;;;;8.40;2.30;;;;;;;21.91;58.17;98237.13;2059709;28;20049;-82
2022/09/25 03:09:09;;;;;;;5.45;2.10;;;;;;;21.88;58.12;98232.19;2063680;28;20042;-79
2022/09/25 03:10:10;;;;;;;12.98;2.22;;;;;;;21.91;58.12;98231.72;2062152;28;20104;-83
2022/09/25 03:11:14;;;;;;;5.70;2.60;;;;;;;21.90;58.07;98230.09;2065483;28;20042;-82
2022/09/25 03:12:15;;;;;;;4.43;1.85;;;;;;;21.91;58.17;98242.53;2064766;28;20107;-81
2022/09/25 03:13:17;;;;;;;;;;;;;;;21.83;58.50;98245.56;2058972;28;20616;-83
2022/09/25 03:14:18;;;;;;;8.07;2.40;;;;;;;21.83;58.75;98237.47;2063659;28;19972;-82
2022/09/25 03:15:22;;;;;;;14.43;2.83;;;;;;;21.89;58.29;98233.81;2062847;28;20125;-81
2022/09/25 03:16:33;;;;;;;6.82;2.90;;;;;;;21.89;58.34;98233.81;2063758;28;20160;-81
2022/09/25 03:17:38;;;;;;;5.45;1.80;;;;;;;21.87;58.34;98233.25;2064821;28;20080;-84
2022/09/25 03:18:39;;;;;;;5.60;2.53;;;;;;;21.87;58.50;98230.56;2062476;28;20050;-82
2022/09/25 03:19:41;;;;;;;5.50;2.30;;;;;;;21.89;58.19;98231.13;2064199;28;20050;-81
2022/09/25 03:20:42;;;;;;;6.43;2.83;;;;;;;21.90;58.49;98235.50;2061172;28;20177;-81
2022/09/25 03:21:43;;;;;;;11.50;2.45;;;;;;;21.91;58.24;98231.72;2063439;28;20588;-82
2022/09/25 03:22:45;;;;;;;9.23;2.10;;;;;;;21.93;58.31;98234.19;2063346;28;20107;-84
2022/09/25 03:23:46;;;;;;;8.75;2.40;;;;;;;21.93;58.25;98226.09;2062423;28;20057;-84
2022/09/25 03:24:47;;;;;;;7.80;2.83;;;;;;;21.93;58.21;98228.81;2063413;28;20606;-83
2022/09/25 03:25:49;;;;;;;14.75;2.40;;;;;;;21.93;58.03;98226.91;2064122;28;20052;-83
2022/09/25 03:26:50;;;;;;;12.60;2.55;;;;;;;21.88;58.07;98216.00;2064347;28;20582;-83
2022/09/25 03:27:52;;;;;;;9.23;2.80;;;;;;;21.92;58.00;98219.03;2064383;28;20140;-82
2022/09/25 03:28:53;;;;;;;3.90;1.80;;;;;;;21.92;58.17;98221.75;2062270;28;20061;-84
2022/09/25 03:29:55;;;;;;;9.07;3.03;;;;;;;21.86;58.28;98218.09;2063976;28;20148;-84
2022/09/25 03:31:00;;;;;;;8.57;2.25;;;;;;;21.90;57.86;98221.16;2062296;28;20057;-82
2022/09/25 03:32:02;;;;;;;6.05;2.40;;;;;;;21.88;58.09;98209.78;2061242;28;20060;-82
2022/09/25 03:33:04;;;;;;;6.90;2.60;;;;;;;21.92;58.08;98203.66;2061833;28;20046;-83
2022/09/25 03:34:06;;;;;;;5.75;1.95;;;;;;;21.89;58.09;98209.53;2063435;28;20046;-84
2022/09/25 03:35:07;;;;;;;5.82;2.53;;;;;;;21.92;57.81;98206.34;2063882;28;20042;-83
2022/09/25 03:36:11;;;;;;;10.00;2.30;;;;;;;21.91;58.04;98207.44;2063615;28;22078;-81
2022/09/25 03:37:13;;;;;;;15.02;3.42;;;;;;;21.90;58.05;98207.66;2065487;28;20058;-84
2022/09/25 03:38:14;;;;;;;9.38;2.42;;;;;;;21.90;58.10;98208.50;2065636;28;20046;-82
2022/09/25 03:39:16;;;;;;;4.35;2.20;;;;;;;21.91;57.81;98206.59;2064840;28;20105;-81
2022/09/25 03:40:19;;;;;;;5.80;1.85;;;;;;;21.90;57.82;98199.53;2057804;28;20108;-83
2022/09/25 03:41:21;;;;;;;5.55;2.10;;;;;;;21.91;58.15;98203.91;2062834;28;20054;-80
2022/09/25 03:42:27;;;;;;;6.90;2.70;;;;;;;21.90;57.91;98199.53;2065298;28;20058;-83
2022/09/25 03:43:32;;;;;;;4.93;2.25;;;;;;;21.90;57.84;98203.09;2063736;28;20106;-84
2022/09/25 03:44:34;;;;;;;6.40;2.15;;;;;;;21.90;57.98;98202.25;2061856;28;20076;-82
2022/09/25 03:45:35;;;;;;;5.07;1.95;;;;;;;21.89;57.93;98212.22;2060476;28;20043;-82
2022/09/25 03:46:36;;;;;;;3.58;2.13;;;;;;;21.89;58.02;98206.00;2064309;28;20235;-82
2022/09/25 03:47:37;;;;;;;4.85;2.63;;;;;;;21.90;58.02;98213.03;2063625;28;20046;-81
2022/09/25 03:48:41;;;;;;;8.25;1.48;;;;;;;21.90;57.75;98213.88;2063133;28;20057;-82
2022/09/25 03:49:42;;;;;;;3.40;1.85;;;;;;;21.90;57.97;98218.44;2060894;28;20058;-83
2022/09/25 03:50:45;;;;;;;5.85;2.17;;;;;;;21.89;57.83;98217.63;2064467;28;20058;-81
2022/09/25 03:51:46;;;;;;;6.60;2.50;;;;;;;21.86;57.76;98215.41;2063255;28;20591;-83
2022/09/25 03:52:48;;;;;;;9.45;2.38;;;;;;;21.89;57.78;98217.63;2066453;28;20042;-82
2022/09/25 03:53:49;;;;;;;3.90;2.25;;;;;;;21.89;57.78;98219.50;2068734;28;20050;-81
2022/09/25 03:54:51;;;;;;;9.27;2.55;;;;;;;21.91;57.75;98226.31;2067465;28;20082;-81
2022/09/25 03:55:53;;;;;;;6.60;1.90;;;;;;;21.89;57.75;98214.94;2066631;28;20066;-83
2022/09/25 03:56:54;;;;;;;4.57;2.35;;;;;;;21.89;57.84;98209.53;2069054;28;20053;-82
2022/09/25 03:57:55;;;;;;;8.38;2.97;;;;;;;21.89;58.02;98206.81;2066761;28;20058;-82
2022/09/25 03:58:58;;;;;;;7.53;1.95;;;;;;;21.88;58.06;98205.19;2067502;28;20615;-80
2022/09/25 04:00:02;;;;;;;3.50;1.83;;;;;;;21.87;57.81;98208.97;2067888;28;20049;-82
2022/09/25 04:01:04;;;;;;;7.13;2.30;;;;;;;21.86;57.85;98212.69;2067327;28;20056;-83
2022/09/25 04:02:05;;;;;;;3.58;1.90;;;;;;;21.88;57.82;98218.69;2066549;28;20965;-82
2022/09/25 04:03:07;;;;;;;5.32;1.77;;;;;;;21.85;57.77;98220.00;2067419;28;20141;-83
2022/09/25 04:04:10;;;;;;;9.35;2.40;;;;;;;21.88;57.67;98226.78;2064552;28;20571;-82
2022/09/25 04:05:11;;;;;;;3.78;2.53;;;;;;;21.87;57.78;98230.56;2066967;28;20132;-82
2022/09/25 04:06:17;;;;;;;5.38;1.90;;;;;;;21.87;58.25;98227.88;2068003;28;20045;-83
2022/09/25 04:07:17;;;;;;;4.30;1.90;;;;;;;21.84;57.91;98228.31;2067725;28;20126;-83
2022/09/25 04:08:19;;;;;;;5.22;1.70;;;;;;;21.88;58.19;98243.00;2062407;28;20049;-83
2022/09/25 04:09:20;;;;;;;3.50;1.80;;;;;;;21.87;57.85;98241.38;2062854;28;20096;-80
2022/09/25 04:10:22;;;;;;;6.53;2.78;;;;;;;21.88;57.84;98240.28;2065023;28;20615;-83
2022/09/25 04:11:24;;;;;;;6.15;2.08;;;;;;;21.88;58.10;98245.69;2066441;28;20053;-83
2022/09/25 04:12:25;;;;;;;4.68;2.20;;;;;;;21.88;57.88;98248.41;2066837;28;20096;-82
2022/09/25 04:13:29;;;;;;;5.20;2.08;;;;;;;21.89;57.94;98241.94;2067830;28;20050;-82
2022/09/25 04:14:30;;;;;;;8.00;2.08;;;;;;;21.87;58.08;98241.38;2075372;28;20045;-82
2022/09/25 04:15:32;;;;;;;4.38;1.85;;;;;;;21.86;57.97;98240.50;2075179;28;20135;-83
2022/09/25 04:16:33;;;;;;;5.00;2.25;;;;;;;21.85;58.07;98235.38;2073482;28;20845;-82
2022/09/25 04:17:35;;;;;;;5.78;1.80;;;;;;;21.85;58.03;98244.28;2076112;28;20128;-81
2022/09/25 04:18:37;;;;;;;4.93;2.30;;;;;;;21.85;57.91;98240.78;2075137;28;20072;-81
2022/09/25 04:19:40;;;;;;;3.63;2.20;;;;;;;21.85;57.84;98236.19;2076422;28;20512;-82
2022/09/25 04:20:41;;;;;;;3.90;1.50;;;;;;;21.83;58.15;98238.28;2066183;28;20045;-82
2022/09/25 04:21:44;;;;;;;;;;;;;;;21.77;58.25;98238.41;2068478;28;20053;-83
2022/09/25 04:22:45;;;;;;;9.18;2.97;;;;;;;21.80;58.00;98243.34;2075996;28;19921;-83
2022/09/25 04:24:47;;;;;;;3.70;1.63;;;;;;;21.83;58.06;98240.19;2074580;28;20533;-84
2022/09/25 04:25:09;;;;;;;4.03;1.60;;;;;;;21.82;58.13;98241.25;2070532;28;20045;-80
2022/09/25 04:26:10;;;;;;;4.75;1.42;;;;;;;21.84;58.11;98244.50;2075658;28;20049;-82
2022/09/25 04:27:11;;;;;;;5.15;1.70;;;;;;;21.82;58.00;98238.53;2074897;28;20417;-81
2022/09/25 04:28:13;;;;;;;7.70;2.17;;;;;;;21.83;57.79;98241.00;2067071;28;20041;-80
2022/09/25 04:29:14;;;;;;;9.25;1.80;;;;;;;21.83;58.07;98240.19;2075200;28;20038;-82
2022/09/25 04:30:16;;;;;;;5.22;2.08;;;;;;;21.84;57.95;98237.25;2075502;28;20468;-82
2022/09/25 04:31:16;;;;;;;8.98;1.73;;;;;;;21.83;57.87;98234.78;2075125;28;20073;-81
2022/09/25 04:33:46;;;;;;;9.57;2.17;;;;;;;21.79;58.11;98229.03;2075210;28;20520;-81
2022/09/25 04:34:49;;;;;;;7.90;2.75;;;;;;;21.80;57.99;98229.84;2072894;28;20455;-82
2022/09/25 04:35:51;;;;;;;9.27;2.00;;;;;;;21.83;58.11;98229.38;2075111;28;20264;-83
2022/09/25 04:36:51;;;;;;;9.35;2.05;;;;;;;21.84;57.92;98226.44;2075316;28;20551;-82
2022/09/25 04:37:53;;;;;;;5.45;2.10;;;;;;;21.86;57.89;98229.72;2072210;28;20128;-81
2022/09/25 04:38:54;;;;;;;6.53;2.22;;;;;;;21.86;57.86;98234.31;2076051;28;20106;-82
2022/09/25 04:39:57;;;;;;;5.50;2.13;;;;;;;21.86;57.81;98231.59;2076239;28;20099;-81
2022/09/25 04:40:58;;;;;;;4.10;1.52;;;;;;;21.86;57.86;98229.72;2073722;28;20053;-82
2022/09/25 04:42:00;;;;;;;7.78;1.90;;;;;;;21.85;58.00;98233.47;2065070;28;20091;-82
2022/09/25 04:43:03;;;;;;;3.97;2.00;;;;;;;21.83;57.91;98229.38;2068142;28;20069;-82
2022/09/25 04:44:06;;;;;;;5.32;1.85;;;;;;;21.85;58.08;98229.97;2069118;28;21019;-80
2022/09/25 04:45:08;;;;;;;7.82;2.20;;;;;;;21.85;57.71;98233.47;2069114;28;20129;-82
2022/09/25 04:46:13;;;;;;;10.70;2.33;;;;;;;21.85;57.86;98233.47;2069711;28;20073;-83
2022/09/25 04:47:14;;;;;;;7.30;1.73;;;;;;;21.84;57.89;98229.16;2069510;28;20429;-82
2022/09/25 04:48:16;;;;;;;4.20;1.45;;;;;;;21.84;57.90;98231.84;2067776;28;20045;-81
2022/09/25 04:49:17;;;;;;;5.60;2.03;;;;;;;21.85;57.73;98224.56;2069306;28;21536;-82
2022/09/25 04:50:20;;;;;;;5.93;1.30;;;;;;;21.84;57.55;98222.91;2067031;28;20104;-82
2022/09/25 04:51:21;;;;;;;3.13;1.90;;;;;;;21.86;57.81;98226.19;2067082;28;20045;-82
2022/09/25 04:52:23;;;;;;;6.30;1.85;;;;;;;21.84;57.83;98231.00;2063453;28;20980;-82
2022/09/25 04:53:25;;;;;;;4.50;1.70;;;;;;;21.84;57.82;98220.22;2066763;28;20500;-80
2022/09/25 04:54:27;;;;;;;6.60;2.00;;;;;;;21.85;57.86;98221.88;2072216;28;20463;-81
2022/09/25 04:55:28;;;;;;;6.05;1.80;;;;;;;21.85;58.03;98216.47;2073291;28;20042;-80
2022/09/25 04:56:29;;;;;;;2.83;1.55;;;;;;;21.83;57.78;98202.38;2075153;28;20043;-80
2022/09/25 04:57:30;;;;;;;3.30;1.42;;;;;;;21.82;57.67;98208.84;2069109;28;20038;-82
2022/09/25 04:58:32;;;;;;;5.60;1.65;;;;;;;21.84;57.74;98204.84;2073753;28;20034;-82
2022/09/25 04:59:33;;;;;;;3.70;1.63;;;;;;;21.84;57.84;98204.84;2075111;28;20056;-82
2022/09/25 05:00:35;;;;;;;2.78;1.70;;;;;;;21.83;57.79;98202.38;2076464;28;20095;-83
2022/09/25 05:01:36;;;;;;;5.88;1.40;;;;;;;21.84;57.72;98206.72;2076477;28;20041;-81
2022/09/25 05:02:38;;;;;;;5.70;2.50;;;;;;;21.84;57.75;98210.25;2076934;28;20099;-80
2022/09/25 05:03:39;;;;;;;4.72;1.98;;;;;;;21.83;57.82;98196.97;2076771;28;20048;-82
2022/09/25 05:04:41;;;;;;;5.85;1.75;;;;;;;21.83;57.68;98197.78;2077416;28;20128;-82
2022/09/25 05:05:43;;;;;;;6.00;1.75;;;;;;;21.83;57.75;98197.78;2076354;28;20122;-82
2022/09/25 05:06:45;;;;;;;6.28;1.73;;;;;;;21.86;57.61;98201.91;2076423;28;20504;-81
2022/09/25 05:07:53;;;;;;;12.02;1.90;;;;;;;21.84;57.74;98199.47;2074966;28;20573;-82
2022/09/25 05:08:56;;;;;;;11.55;1.98;;;;;;;21.84;57.92;98193.22;2077085;28;20087;-82